createdAt,value
2019-05-03T00:01:29.328Z,1.80
2019-05-03T00:03:57.274Z,1.87
2019-05-03T00:06:25.359Z,1.80
2019-05-03T00:08:53.511Z,2.00
2019-05-03T00:11:22.104Z,2.00
2019-05-03T00:13:50.143Z,1.83
2019-05-03T00:16:26.307Z,2.47
2019-05-03T00:18:54.262Z,1.80
2019-05-03T00:21:22.247Z,1.93
2019-05-03T00:23:52.160Z,1.90
2019-05-03T00:26:19.853Z,2.10
2019-05-03T00:28:47.843Z,1.90
2019-05-03T00:31:15.922Z,1.80
2019-05-03T00:33:45.732Z,1.70
2019-05-03T00:36:32.677Z,1.73
2019-05-03T00:39:12.831Z,1.87
2019-05-03T00:41:42.553Z,1.90
2019-05-03T00:44:11.569Z,1.63
2019-05-03T00:46:39.597Z,1.70
2019-05-03T00:49:07.544Z,1.97
2019-05-03T00:51:35.538Z,1.87
2019-05-03T00:54:03.752Z,1.70
2019-05-03T00:56:32.164Z,1.90
2019-05-03T00:59:02.063Z,1.80
2019-05-03T01:01:31.938Z,2.00
2019-05-03T01:04:01.647Z,1.93
2019-05-03T01:06:29.132Z,2.23
2019-05-03T01:08:57.067Z,1.70
2019-05-03T01:11:25.071Z,1.80
2019-05-03T01:13:53.082Z,1.90
2019-05-03T01:16:22.676Z,1.70
2019-05-03T01:18:52.284Z,1.70
2019-05-03T01:21:22.319Z,1.80
2019-05-03T01:23:52.318Z,1.70
2019-05-03T01:26:19.815Z,1.97
2019-05-03T01:28:47.800Z,1.70
2019-05-03T01:31:15.753Z,2.00
2019-05-03T01:33:43.875Z,1.90
2019-05-03T01:36:12.106Z,1.90
2019-05-03T01:38:42.012Z,1.93
2019-05-03T01:41:09.780Z,2.13
2019-05-03T01:43:37.708Z,1.87
2019-05-03T01:46:05.691Z,2.00
2019-05-03T01:48:52.223Z,2.00
2019-05-03T01:51:44.987Z,2.50
2019-05-03T01:54:12.929Z,1.77
2019-05-03T01:56:46.005Z,1.90
2019-05-03T01:59:12.247Z,1.80
2019-05-03T02:02:13.905Z,1.83
2019-05-03T02:04:48.893Z,2.30
2019-05-03T02:07:16.795Z,1.80
2019-05-03T02:09:44.694Z,2.00
2019-05-03T02:12:12.779Z,1.90
2019-05-03T02:14:42.234Z,1.93
2019-05-03T02:17:12.284Z,2.37
2019-05-03T02:19:41.989Z,1.93
2019-05-03T02:22:09.575Z,2.00
2019-05-03T02:24:37.511Z,2.30
2019-05-03T02:27:05.400Z,2.10
2019-05-03T02:29:33.281Z,2.07
2019-05-03T02:32:03.323Z,2.13
2019-05-03T02:34:32.782Z,2.30
2019-05-03T02:37:03.006Z,2.40
2019-05-03T02:39:30.287Z,2.10
2019-05-03T02:42:06.334Z,2.03
2019-05-03T02:44:28.024Z,2.10
2019-05-03T02:47:09.865Z,2.30
2019-05-03T02:49:41.473Z,2.03
2019-05-03T02:52:28.463Z,2.10
2019-05-03T02:54:56.462Z,2.10
2019-05-03T02:57:25.891Z,1.97
2019-05-03T02:59:54.966Z,2.27
2019-05-03T03:02:26.237Z,2.00
2019-05-03T03:04:53.081Z,2.67
2019-05-03T03:07:21.569Z,2.30
2019-05-03T03:09:49.648Z,2.10
2019-05-03T03:12:18.361Z,2.20
2019-05-03T03:14:47.320Z,2.30
2019-05-03T03:17:16.706Z,2.33
2019-05-03T03:19:46.290Z,2.23
2019-05-03T03:22:15.998Z,2.33
2019-05-03T03:24:46.036Z,2.20
2019-05-03T03:27:16.466Z,2.20
2019-05-03T03:29:46.071Z,2.50
2019-05-03T03:32:28.409Z,2.30
2019-05-03T03:35:20.157Z,2.33
2019-05-03T03:37:46.242Z,2.37
2019-05-03T03:40:16.156Z,1.93
2019-05-03T03:42:44.967Z,2.13
2019-05-03T03:45:16.314Z,2.00
2019-05-03T03:47:46.457Z,2.00
2019-05-03T03:50:15.161Z,2.13
2019-05-03T03:52:45.309Z,3.20
2019-05-03T03:55:15.979Z,2.30
2019-05-03T03:57:43.123Z,2.40
2019-05-03T04:00:11.234Z,2.37
2019-05-03T04:02:39.762Z,2.13
2019-05-03T04:05:08.278Z,2.60
2019-05-03T04:07:36.422Z,2.30
2019-05-03T04:10:05.790Z,2.17
2019-05-03T04:12:35.239Z,2.23
2019-05-03T04:15:25.765Z,2.20
2019-05-03T04:18:05.672Z,2.30
2019-05-03T04:20:36.173Z,2.33
2019-05-03T04:23:05.298Z,2.30
2019-05-03T04:25:35.623Z,2.33
2019-05-03T04:28:05.807Z,2.27
2019-05-03T04:30:36.156Z,2.17
2019-05-03T04:33:05.948Z,2.50
2019-05-03T04:35:36.043Z,2.20
2019-05-03T04:38:05.312Z,2.00
2019-05-03T04:40:32.459Z,2.30
2019-05-03T04:43:00.412Z,2.17
2019-05-03T04:45:28.396Z,2.30
2019-05-03T04:47:56.457Z,2.30
2019-05-03T04:50:25.545Z,2.20
2019-05-03T04:52:56.376Z,1.90
2019-05-03T04:55:26.306Z,2.10
2019-05-03T04:57:55.901Z,2.40
2019-05-03T05:00:25.713Z,1.80
2019-05-03T05:02:54.885Z,2.30
2019-05-03T05:05:22.226Z,2.10
2019-05-03T05:07:50.210Z,2.33
2019-05-03T05:10:18.104Z,2.17
2019-05-03T05:12:46.025Z,2.20
2019-05-03T05:15:15.661Z,2.20
2019-05-03T05:18:00.120Z,2.07
2019-05-03T05:20:47.030Z,2.10
2019-05-03T05:23:15.033Z,2.30
2019-05-03T05:25:48.280Z,2.10
2019-05-03T05:28:25.134Z,1.87
2019-05-03T05:30:54.612Z,2.20
2019-05-03T05:33:22.626Z,2.10
2019-05-03T05:35:51.001Z,2.00
2019-05-03T05:38:18.992Z,2.10
2019-05-03T05:40:46.995Z,1.67
2019-05-03T05:43:15.274Z,2.00
2019-05-03T05:45:44.931Z,2.30
2019-05-03T05:48:15.736Z,1.90
2019-05-03T05:50:44.891Z,2.10
2019-05-03T05:53:15.114Z,2.20
2019-05-03T05:56:00.603Z,2.00
2019-05-03T05:58:34.919Z,2.20
2019-05-03T06:01:14.584Z,2.60
2019-05-03T06:03:44.725Z,1.83
2019-05-03T06:06:16.224Z,2.20
2019-05-03T06:09:05.001Z,2.43
2019-05-03T06:11:38.841Z,2.30
2019-05-03T06:14:28.924Z,2.03
2019-05-03T06:17:27.824Z,2.63
2019-05-03T06:20:13.287Z,2.20
2019-05-03T06:22:47.875Z,2.20
2019-05-03T06:25:26.596Z,2.57
2019-05-03T06:27:54.945Z,2.00
2019-05-03T06:30:45.728Z,2.00
2019-05-03T06:33:14.996Z,2.00
2019-05-03T06:35:44.538Z,2.00
2019-05-03T06:38:12.641Z,2.10
2019-05-03T06:40:40.626Z,1.60
2019-05-03T06:43:12.637Z,1.80
2019-05-03T06:45:41.141Z,1.80
2019-05-03T06:48:07.791Z,1.80
2019-05-03T06:50:35.829Z,1.80
2019-05-03T06:53:05.773Z,1.80
2019-05-03T06:55:35.115Z,1.83
2019-05-03T06:58:04.974Z,1.93
2019-05-03T07:00:45.189Z,2.30
2019-05-03T07:03:27.595Z,1.87
2019-05-03T07:06:14.866Z,1.80
2019-05-03T07:08:54.945Z,3.60
2019-05-03T07:11:24.746Z,1.90
2019-05-03T07:13:54.879Z,1.90
2019-05-03T07:16:22.315Z,2.20
2019-05-03T07:18:50.287Z,2.10
2019-05-03T07:21:18.359Z,1.97
2019-05-03T07:23:51.653Z,1.50
2019-05-03T07:26:19.435Z,1.47
2019-05-03T07:28:50.067Z,1.47
2019-05-03T07:31:17.163Z,1.60
2019-05-03T07:33:45.163Z,1.50
2019-05-03T07:36:15.159Z,1.40
2019-05-03T07:38:42.726Z,1.70
2019-05-03T07:41:10.701Z,1.60
2019-05-03T07:43:38.679Z,1.70
2019-05-03T07:46:06.671Z,1.50
2019-05-03T07:48:35.327Z,1.50
2019-05-03T07:51:05.304Z,1.50
2019-05-03T07:53:34.857Z,1.30
2019-05-03T07:56:07.470Z,1.50
2019-05-03T07:58:35.582Z,1.83
2019-05-03T08:01:09.647Z,1.60
2019-05-03T08:03:35.299Z,1.23
2019-05-03T08:06:04.754Z,1.40
2019-05-03T08:08:32.851Z,1.30
2019-05-03T08:11:00.907Z,1.40
2019-05-03T08:13:28.906Z,1.40
2019-05-03T08:15:56.803Z,1.40
2019-05-03T08:18:25.695Z,1.50
2019-05-03T08:20:55.660Z,1.37
2019-05-03T08:23:29.681Z,1.30
2019-05-03T08:25:55.473Z,1.40
2019-05-03T08:28:24.571Z,1.40
2019-05-03T08:31:26.647Z,1.50
2019-05-03T08:34:07.236Z,1.30
2019-05-03T08:36:54.851Z,1.40
2019-05-03T08:39:25.744Z,1.20
2019-05-03T08:42:01.540Z,1.00
2019-05-03T08:44:29.731Z,1.47
2019-05-03T08:46:58.232Z,1.37
2019-05-03T08:49:26.269Z,1.40
2019-05-03T08:51:54.948Z,1.37
2019-05-03T08:54:25.403Z,1.50
2019-05-03T08:56:53.033Z,1.33
2019-05-03T08:59:29.811Z,1.40
2019-05-03T09:01:50.606Z,1.40
2019-05-03T09:04:18.622Z,1.40
2019-05-03T09:06:46.543Z,1.30
2019-05-03T09:09:25.462Z,1.30
2019-05-03T09:11:55.526Z,1.10
2019-05-03T09:14:24.492Z,1.20
2019-05-03T09:16:55.419Z,1.47
2019-05-03T09:19:25.137Z,1.50
2019-05-03T09:21:54.751Z,1.57
2019-05-03T09:24:24.437Z,2.40
2019-05-03T09:26:52.054Z,1.60
2019-05-03T09:29:19.991Z,1.63
2019-05-03T09:31:48.013Z,1.33
2019-05-03T09:34:15.907Z,1.20
2019-05-03T09:36:44.873Z,1.80
2019-05-03T09:39:14.812Z,1.40
2019-05-03T09:41:44.887Z,1.30
2019-05-03T09:44:12.478Z,1.50
2019-05-03T09:46:40.476Z,1.30
2019-05-03T09:49:13.327Z,1.50
2019-05-03T09:51:38.011Z,1.43
2019-05-03T09:54:14.722Z,1.43
2019-05-03T09:56:58.650Z,1.67
2019-05-03T09:59:27.785Z,1.57
2019-05-03T10:01:55.695Z,2.30
2019-05-03T10:04:25.439Z,1.50
2019-05-03T10:06:54.780Z,1.70
2019-05-03T10:09:22.949Z,1.23
2019-05-03T10:11:50.987Z,1.30
2019-05-03T10:14:18.983Z,3.00
2019-05-03T10:16:55.133Z,2.20
2019-05-03T10:19:36.286Z,1.50
2019-05-03T10:21:52.735Z,1.70
2019-05-03T10:24:20.712Z,1.70
2019-05-03T10:26:48.736Z,1.60
2019-05-03T10:29:16.669Z,1.40
2019-05-03T10:31:51.891Z,1.30
2019-05-03T10:34:19.899Z,1.30
2019-05-03T10:36:47.839Z,1.30
2019-05-03T10:39:15.809Z,1.30
2019-05-03T10:41:45.331Z,1.30
2019-05-03T10:44:15.069Z,1.77
2019-05-03T10:46:45.106Z,1.50
2019-05-03T10:49:15.141Z,1.10
2019-05-03T10:51:46.984Z,1.10
2019-05-03T10:54:14.942Z,1.20
2019-05-03T10:56:51.036Z,1.27
2019-05-03T10:59:20.129Z,1.77
2019-05-03T11:02:07.666Z,1.30
2019-05-03T11:04:35.738Z,1.30
2019-05-03T11:07:06.089Z,1.40
2019-05-03T11:09:47.911Z,1.30
2019-05-03T11:12:05.320Z,1.40
2019-05-03T11:14:35.016Z,1.40
2019-05-03T11:17:03.039Z,1.27
2019-05-03T11:19:30.936Z,1.20
2019-05-03T11:21:59.152Z,1.33
2019-05-03T11:24:27.651Z,1.10
2019-05-03T11:27:00.064Z,1.27
2019-05-03T11:29:27.015Z,1.10
2019-05-03T11:32:11.659Z,1.37
2019-05-03T11:34:48.296Z,1.40
2019-05-03T11:37:50.205Z,1.30
2019-05-03T11:40:18.415Z,1.50
2019-05-03T11:42:46.980Z,1.10
2019-05-03T11:45:15.364Z,1.30
2019-05-03T11:47:45.428Z,1.33
2019-05-03T11:50:14.839Z,1.30
2019-05-03T11:52:43.004Z,1.40
2019-05-03T11:55:12.103Z,1.40
2019-05-03T11:57:40.352Z,1.40
2019-05-03T12:00:09.554Z,1.10
2019-05-03T12:03:08.501Z,1.20
2019-05-03T12:05:36.561Z,1.30
2019-05-03T12:08:05.413Z,1.20
2019-05-03T12:10:50.215Z,1.20
2019-05-03T12:13:15.631Z,1.10
2019-05-03T12:15:44.526Z,1.20
2019-05-03T12:18:12.570Z,1.20
2019-05-03T12:20:42.536Z,1.30
2019-05-03T12:23:12.001Z,1.23
2019-05-03T12:25:40.840Z,1.20
2019-05-03T12:28:09.491Z,1.40
2019-05-03T12:30:37.460Z,1.30
2019-05-03T12:33:06.177Z,1.33
2019-05-03T12:35:35.752Z,1.30
2019-05-03T12:38:05.443Z,1.20
2019-05-03T12:40:35.046Z,1.10
2019-05-03T12:43:05.774Z,1.30
2019-05-03T12:45:32.900Z,1.30
2019-05-03T12:48:04.919Z,1.30
2019-05-03T12:50:34.660Z,1.30
2019-05-03T12:53:04.832Z,1.17
2019-05-03T12:55:32.496Z,1.40
2019-05-03T12:58:00.505Z,1.50
2019-05-03T13:00:48.673Z,1.43
2019-05-03T13:03:35.990Z,1.20
2019-05-03T13:06:07.154Z,1.30
2019-05-03T13:08:38.152Z,1.20
2019-05-03T13:11:06.710Z,1.33
2019-05-03T13:13:35.871Z,1.17
2019-05-03T13:16:04.679Z,1.40
2019-05-03T13:18:34.791Z,1.20
2019-05-03T13:21:02.306Z,1.40
2019-05-03T13:23:30.388Z,1.10
2019-05-03T13:25:58.434Z,1.20
2019-05-03T13:28:26.355Z,1.20
2019-05-03T13:30:54.645Z,1.10
2019-05-03T13:33:22.752Z,1.20
2019-05-03T13:35:50.721Z,1.20
2019-05-03T13:38:18.639Z,1.30
2019-05-03T13:40:46.552Z,1.30
2019-05-03T13:43:15.005Z,1.50
2019-05-03T13:45:45.093Z,1.20
2019-05-03T13:48:15.350Z,1.37
2019-05-03T13:50:44.456Z,1.40
2019-05-03T13:53:12.303Z,1.47
2019-05-03T13:55:40.200Z,1.40
2019-05-03T13:58:08.215Z,1.07
2019-05-03T14:00:36.168Z,1.30
2019-05-03T14:03:04.668Z,1.40
2019-05-03T14:05:34.813Z,1.30
2019-05-03T14:08:04.829Z,1.40
2019-05-03T14:10:32.116Z,1.30
2019-05-03T14:13:00.083Z,1.40
2019-05-03T14:15:28.079Z,1.40
2019-05-03T14:17:56.208Z,1.40
2019-05-03T14:20:32.316Z,1.40
2019-05-03T14:23:00.214Z,1.60
2019-05-03T14:25:28.118Z,1.50
2019-05-03T14:27:56.096Z,1.70
2019-05-03T14:30:27.184Z,1.70
2019-05-03T14:32:55.757Z,1.50
2019-05-03T14:35:25.090Z,1.60
2019-05-03T14:37:55.069Z,1.30
2019-05-03T14:40:25.169Z,1.63
2019-05-03T14:42:55.297Z,1.50
2019-05-03T14:45:22.691Z,1.43
2019-05-03T14:47:50.607Z,1.40
2019-05-03T14:50:18.776Z,1.60
2019-05-03T14:52:46.990Z,1.57
2019-05-03T14:55:25.166Z,1.60
2019-05-03T14:58:14.794Z,1.60
2019-05-03T15:00:48.951Z,1.90
2019-05-03T15:03:20.133Z,1.80
2019-05-03T15:05:48.272Z,1.83
2019-05-03T15:08:16.216Z,2.00
2019-05-03T15:10:45.622Z,1.53
2019-05-03T15:13:15.815Z,1.90
2019-05-03T15:15:45.139Z,1.80
2019-05-03T15:18:14.938Z,1.90
2019-05-03T15:20:42.935Z,1.83
2019-05-03T15:23:10.927Z,1.77
2019-05-03T15:25:39.954Z,2.00
2019-05-03T15:28:08.047Z,2.20
2019-05-03T15:30:35.969Z,2.10
2019-05-03T15:33:05.004Z,1.90
2019-05-03T15:35:35.169Z,1.73
2019-05-03T15:38:05.185Z,1.63
2019-05-03T15:40:32.691Z,1.63
2019-05-03T15:43:07.535Z,1.70
2019-05-03T15:46:05.051Z,2.10
2019-05-03T15:48:37.228Z,1.77
2019-05-03T15:51:05.157Z,1.87
2019-05-03T15:53:35.203Z,1.90
2019-05-03T15:56:02.855Z,1.90
2019-05-03T15:58:30.823Z,1.93
2019-05-03T16:00:58.803Z,2.00
2019-05-03T16:03:26.783Z,2.07
2019-05-03T16:05:55.615Z,1.90
2019-05-03T16:08:24.784Z,1.77
2019-05-03T16:10:54.713Z,1.70
2019-05-03T16:13:22.510Z,1.97
2019-05-03T16:15:50.497Z,1.60
2019-05-03T16:18:18.391Z,1.90
2019-05-03T16:20:46.864Z,2.17
2019-05-03T16:23:17.367Z,2.20
2019-05-03T16:25:46.131Z,2.10
2019-05-03T16:28:26.401Z,2.17
2019-05-03T16:30:58.683Z,2.00
2019-05-03T16:33:28.137Z,1.80
2019-05-03T16:35:56.249Z,1.90
2019-05-03T16:38:24.870Z,2.10
2019-05-03T16:40:54.512Z,1.83
2019-05-03T16:43:22.600Z,1.77
2019-05-03T16:45:50.616Z,2.03
2019-05-03T16:48:18.620Z,1.90
2019-05-03T16:50:46.617Z,2.00
2019-05-03T16:53:14.866Z,2.20
2019-05-03T16:55:44.333Z,2.10
2019-05-03T16:58:12.529Z,3.40
2019-05-03T17:00:40.556Z,2.00
2019-05-03T17:03:08.539Z,2.30
2019-05-03T17:05:54.459Z,1.80
2019-05-03T17:08:56.815Z,2.93
2019-05-03T17:11:25.268Z,3.00
2019-05-03T17:13:55.372Z,2.50
2019-05-03T17:16:24.847Z,3.20
2019-05-03T17:18:52.571Z,2.40
2019-05-03T17:21:20.493Z,2.33
2019-05-03T17:23:48.498Z,2.20
2019-05-03T17:26:17.497Z,2.60
2019-05-03T17:28:45.720Z,2.57
2019-05-03T17:31:13.664Z,2.30
2019-05-03T17:33:50.637Z,2.37
2019-05-03T17:36:11.295Z,2.00
2019-05-03T17:38:39.240Z,2.20
2019-05-03T17:41:25.550Z,2.10
2019-05-03T17:44:09.627Z,2.40
2019-05-03T17:46:37.568Z,2.67
2019-05-03T17:49:05.584Z,2.33
2019-05-03T17:52:07.487Z,2.80
2019-05-03T17:54:57.122Z,2.60
2019-05-03T17:57:31.536Z,3.17
2019-05-03T18:00:09.679Z,3.47
2019-05-03T18:02:41.783Z,2.33
2019-05-03T18:05:28.845Z,2.50
2019-05-03T18:08:18.185Z,2.40
2019-05-03T18:10:51.739Z,2.60
2019-05-03T18:13:19.840Z,2.30
2019-05-03T18:15:47.847Z,2.20
2019-05-03T18:18:17.842Z,1.90
2019-05-03T18:20:45.807Z,2.00
2019-05-03T18:23:15.384Z,2.10
2019-05-03T18:25:44.697Z,2.10
2019-05-03T18:28:14.851Z,2.27
2019-05-03T18:30:42.723Z,2.30
2019-05-03T18:33:10.734Z,2.83
2019-05-03T18:35:39.008Z,3.67
2019-05-03T18:38:06.935Z,3.10
2019-05-03T18:40:35.560Z,3.67
2019-05-03T18:43:18.604Z,2.63
2019-05-03T18:46:02.317Z,2.60
2019-05-03T18:48:30.420Z,2.60
2019-05-03T18:50:58.362Z,2.50
2019-05-03T18:53:26.356Z,3.00
2019-05-03T18:55:55.207Z,2.73
2019-05-03T18:58:24.384Z,2.83
2019-05-03T19:00:52.525Z,2.90
2019-05-03T19:03:20.476Z,2.87
2019-05-03T19:05:49.780Z,2.50
2019-05-03T19:08:35.142Z,3.00
2019-05-03T19:11:09.308Z,2.90
2019-05-03T19:13:47.713Z,2.63
2019-05-03T19:16:29.646Z,2.50
2019-05-03T19:18:57.896Z,2.60
2019-05-03T19:21:26.135Z,2.60
2019-05-03T19:23:54.160Z,2.37
2019-05-03T19:26:22.219Z,2.60
2019-05-03T19:28:50.204Z,2.80
2019-05-03T19:31:18.191Z,2.97
2019-05-03T19:33:46.187Z,3.13
2019-05-03T19:36:14.127Z,3.40
2019-05-03T19:38:42.067Z,3.57
2019-05-03T19:41:10.165Z,3.10
2019-05-03T19:43:38.196Z,3.00
2019-05-03T19:46:07.381Z,3.07
2019-05-03T19:48:35.951Z,2.83
2019-05-03T19:51:05.789Z,3.10
2019-05-03T19:53:54.900Z,2.80
2019-05-03T19:56:22.721Z,2.83
2019-05-03T19:58:55.214Z,2.90
2019-05-03T20:01:38.825Z,2.80
2019-05-03T20:04:26.355Z,3.03
2019-05-03T20:07:00.362Z,2.90
2019-05-03T20:09:28.491Z,2.73
2019-05-03T20:11:56.439Z,2.80
2019-05-03T20:14:25.783Z,2.70
2019-05-03T20:16:54.992Z,2.73
2019-05-03T20:19:23.068Z,2.83
2019-05-03T20:21:50.980Z,3.00
2019-05-03T20:24:19.033Z,2.80
2019-05-03T20:26:46.942Z,2.43
2019-05-03T20:29:14.889Z,2.80
2019-05-03T20:31:44.567Z,3.13
2019-05-03T20:34:12.568Z,2.80
2019-05-03T20:36:40.563Z,2.53
2019-05-03T20:39:08.548Z,2.90
2019-05-03T20:41:36.503Z,2.60
2019-05-03T20:44:28.148Z,2.63
2019-05-03T20:47:04.407Z,2.73
2019-05-03T20:49:34.724Z,3.23
2019-05-03T20:52:02.650Z,3.03
2019-05-03T20:54:30.622Z,3.30
2019-05-03T20:56:58.675Z,4.40
2019-05-03T20:59:26.575Z,4.00
2019-05-03T21:01:54.660Z,4.13
2019-05-03T21:04:24.572Z,3.60
2019-05-03T21:06:52.420Z,3.70
2019-05-03T21:09:20.387Z,3.40
2019-05-03T21:11:48.515Z,3.20
2019-05-03T21:14:16.431Z,3.70
2019-05-03T21:17:12.335Z,3.33
2019-05-03T21:19:46.511Z,3.10
2019-05-03T21:22:48.376Z,3.27
2019-05-03T21:25:26.672Z,3.80
2019-05-03T21:27:55.505Z,3.77
2019-05-03T21:30:24.684Z,3.17
2019-05-03T21:32:54.770Z,3.10
2019-05-03T21:35:22.355Z,2.80
2019-05-03T21:37:50.283Z,2.70
2019-05-03T21:40:18.220Z,2.80
2019-05-03T21:42:46.232Z,2.67
2019-05-03T21:45:16.089Z,2.97
2019-05-03T21:48:01.670Z,2.87
2019-05-03T21:50:29.732Z,2.90
2019-05-03T21:53:05.588Z,3.50
2019-05-03T21:55:35.313Z,3.40
2019-05-03T21:58:04.677Z,3.50
2019-05-03T22:00:50.113Z,3.03
2019-05-03T22:03:18.019Z,3.40
2019-05-03T22:05:54.840Z,3.33
2019-05-03T22:08:15.784Z,3.50
2019-05-03T22:10:45.088Z,3.27
2019-05-03T22:13:15.295Z,3.30
2019-05-03T22:15:50.728Z,2.93
2019-05-03T22:18:29.153Z,2.80
2019-05-03T22:21:05.565Z,3.10
2019-05-03T22:23:51.174Z,2.90
2019-05-03T22:26:20.711Z,3.03
2019-05-03T22:28:48.599Z,2.73
2019-05-03T22:31:16.597Z,2.87
2019-05-03T22:33:46.275Z,3.00
2019-05-03T22:36:14.567Z,3.10
2019-05-03T22:38:42.673Z,3.33
2019-05-03T22:41:10.595Z,3.23
2019-05-03T22:43:38.543Z,3.23
2019-05-03T22:46:06.477Z,3.40
2019-05-03T22:48:34.426Z,3.47
2019-05-03T22:51:02.440Z,3.30
2019-05-03T22:53:30.391Z,3.37
2019-05-03T22:56:01.310Z,3.63
2019-05-03T22:58:29.295Z,3.50
2019-05-03T23:00:57.298Z,3.70
2019-05-03T23:03:25.279Z,3.83
2019-05-03T23:05:54.822Z,3.93
2019-05-03T23:08:22.879Z,3.83
2019-05-03T23:10:50.800Z,3.70
2019-05-03T23:13:18.744Z,3.47
2019-05-03T23:15:47.046Z,4.00
2019-05-03T23:18:14.953Z,4.30
2019-05-03T23:21:01.881Z,3.60
2019-05-03T23:23:47.963Z,4.30
2019-05-03T23:26:16.040Z,4.30
2019-05-03T23:28:44.575Z,4.13
2019-05-03T23:31:14.563Z,3.60
2019-05-03T23:33:42.315Z,3.93
2019-05-03T23:36:10.231Z,3.93
2019-05-03T23:38:38.138Z,4.07
2019-05-03T23:41:06.066Z,3.93
2019-05-03T23:43:35.741Z,3.63
2019-05-03T23:46:05.092Z,4.17
2019-05-03T23:48:35.016Z,4.10
2019-05-03T23:51:04.632Z,3.90
2019-05-03T23:53:32.690Z,4.30
2019-05-03T23:56:10.455Z,4.23
2019-05-03T23:58:38.560Z,4.40
